Letzte 24h
Datum & Zeit Temp. Luft-
feuchte
Wind Nieder-
schlag
Luftdruck Tendenz
IN OUT IN OUT Richtung Min. Max.
2019.04.21 16:55 22.0 °C 21.4 °C 23% 15% NNO 16 ° 11 km/h 18 km/h 0.0 mm 1026.40 hPa fallend
17:55 21.6 °C 21.7 °C 22% 13% N 360 ° 8 km/h 16 km/h 0.0 mm 1025.90 hPa fallend
18:55 21.0 °C 20.8 °C 22% 15% N 9 ° 7 km/h 12 km/h 0.0 mm 1025.50 hPa langsam fallend
19:55 20.0 °C 17.4 °C 23% 19% NNO 16 ° 3 km/h 9 km/h 0.0 mm 1025.20 hPa langsam fallend
20:55 18.6 °C 14.7 °C 29% 31% O 90 ° 0 km/h 4 km/h 0.0 mm 1025.30 hPa langsam fallend
21:55 17.3 °C 13.4 °C 30% 37% S 180 ° 0 km/h 3 km/h 0.0 mm 1025.20 hPa langsam fallend
22:55 16.3 °C 12.4 °C 32% 41% SO 135 ° 0 km/h 3 km/h 0.0 mm 1024.70 hPa langsam fallend
23:55 15.2 °C 11.3 °C 34% 48% SSO 165 ° 0 km/h 4 km/h 0.0 mm 1024.30 hPa langsam fallend
2019.04.22 00:55 14.8 °C 11.6 °C 36% 48% W 262 ° 1 km/h 7 km/h 0.0 mm 1023.80 hPa langsam fallend
01:55 14.2 °C 11.1 °C 36% 49% W 273 ° 1 km/h 9 km/h 0.0 mm 1023.30 hPa langsam fallend
02:55 13.8 °C 9.2 °C 39% 60% WNW 285 ° 5 km/h 9 km/h 0.0 mm 1022.60 hPa fallend
03:55 13.3 °C 8.0 °C 40% 64% W 277 ° 5 km/h 9 km/h 0.0 mm 1022.10 hPa fallend
04:55 13.0 °C 7.3 °C 40% 65% WNW 283 ° 5 km/h 10 km/h 0.0 mm 1021.80 hPa langsam fallend
05:55 12.6 °C 6.3 °C 40% 66% W 270 ° 4 km/h 10 km/h 0.0 mm 1021.40 hPa langsam fallend
06:55 12.4 °C 11.7 °C 40% 63% S 180 ° 0 km/h 0 km/h 0.0 mm 1021.30 hPa langsam fallend
07:55 13.2 °C 12.7 °C 42% 48% NW 318 ° 1 km/h 4 km/h 0.0 mm 1021.30 hPa langsam fallend
08:55 14.7 °C 11.8 °C 43% 54% NW 326 ° 4 km/h 11 km/h 0.0 mm 1021.30 hPa langsam fallend
09:55 15.8 °C 14.9 °C 42% 48% NNW 330 ° 6 km/h 12 km/h 0.0 mm 1021.40 hPa langsam steigend
10:55 17.1 °C 17.6 °C 41% 39% NNW 347 ° 8 km/h 15 km/h 0.0 mm 1020.90 hPa langsam fallend
11:55 18.6 °C 18.9 °C 35% 33% N 2 ° 12 km/h 21 km/h 0.0 mm 1020.30 hPa langsam fallend
12:55 19.8 °C 20.5 °C 32% 30% NNO 30 ° 13 km/h 24 km/h 0.0 mm 1019.80 hPa fallend
13:55 21.1 °C 21.1 °C 30% 25% ONO 78 ° 12 km/h 26 km/h 0.0 mm 1019.30 hPa fallend
14:55 22.3 °C 21.0 °C 28% 26% ONO 74 ° 15 km/h 26 km/h 0.0 mm 1018.90 hPa langsam fallend
15:55 23.7 °C 21.2 °C 27% 29% O 101 ° 12 km/h 31 km/h 0.0 mm 1018.60 hPa langsam fallend

 

Verlauf: letzte 24h
WIND   Windrose
(Klicke ins Bild, um den Hintergrund abzuschalten)
WIND   Windverkauf 2.5h
TEMP   Temperatur 2.5h
Druck   Luftdruck 2.5h
Regen   Luftdruck 2.5h